sensor_id;sensor_type;location;lat;lon;timestamp;pressure;altitude;pressure_sealevel;temperature;humidity
72525;BME280;60547;48.502;8.996;2023-03-01T00:01:49;98640.88;;;-2.00;76.34
72525;BME280;60547;48.502;8.996;2023-03-01T00:04:15;98631.66;;;-2.07;76.28
72525;BME280;60547;48.502;8.996;2023-03-01T00:06:42;98635.97;;;-2.06;75.97
72525;BME280;60547;48.502;8.996;2023-03-01T00:09:08;98639.03;;;-2.08;76.84
72525;BME280;60547;48.502;8.996;2023-03-01T00:11:34;98628.00;;;-2.11;76.71
72525;BME280;60547;48.502;8.996;2023-03-01T00:14:01;98638.56;;;-2.10;76.58
72525;BME280;60547;48.502;8.996;2023-03-01T00:16:32;98640.63;;;-2.07;76.11
72525;BME280;60547;48.502;8.996;2023-03-01T00:19:02;98637.31;;;-2.12;76.85
72525;BME280;60547;48.502;8.996;2023-03-01T00:21:28;98634.59;;;-2.12;76.05
72525;BME280;60547;48.502;8.996;2023-03-01T00:23:54;98634.25;;;-2.11;76.52
72525;BME280;60547;48.502;8.996;2023-03-01T00:26:22;98641.03;;;-2.17;76.55
72525;BME280;60547;48.502;8.996;2023-03-01T00:28:47;98624.44;;;-2.24;76.64
72525;BME280;60547;48.502;8.996;2023-03-01T00:31:18;98627.97;;;-2.23;77.13
72525;BME280;60547;48.502;8.996;2023-03-01T00:33:44;98615.94;;;-2.22;76.38
72525;BME280;60547;48.502;8.996;2023-03-01T00:36:11;98620.44;;;-2.26;76.18
72525;BME280;60547;48.502;8.996;2023-03-01T00:38:39;98627.03;;;-2.28;77.30
72525;BME280;60547;48.502;8.996;2023-03-01T00:41:11;98628.84;;;-2.32;77.36
72525;BME280;60547;48.502;8.996;2023-03-01T00:43:36;98619.72;;;-2.36;76.27
72525;BME280;60547;48.502;8.996;2023-03-01T00:46:04;98619.72;;;-2.36;76.22
72525;BME280;60547;48.502;8.996;2023-03-01T00:48:31;98615.06;;;-2.35;76.67
72525;BME280;60547;48.502;8.996;2023-03-01T00:50:56;98611.56;;;-2.36;76.82
72525;BME280;60547;48.502;8.996;2023-03-01T00:53:22;98611.09;;;-2.38;76.00
72525;BME280;60547;48.502;8.996;2023-03-01T00:55:47;98612.22;;;-2.39;76.42
72525;BME280;60547;48.502;8.996;2023-03-01T00:58:13;98605.84;;;-2.43;76.43
72525;BME280;60547;48.502;8.996;2023-03-01T01:00:38;98601.47;;;-2.56;76.85
72525;BME280;60547;48.502;8.996;2023-03-01T01:03:04;98598.88;;;-2.52;77.32
72525;BME280;60547;48.502;8.996;2023-03-01T01:05:29;98606.50;;;-2.46;76.89
72525;BME280;60547;48.502;8.996;2023-03-01T01:07:55;98612.50;;;-2.52;76.81
72525;BME280;60547;48.502;8.996;2023-03-01T01:10:21;98596.03;;;-2.56;76.80
72525;BME280;60547;48.502;8.996;2023-03-01T01:12:46;98607.84;;;-2.52;76.83
72525;BME280;60547;48.502;8.996;2023-03-01T01:15:12;98593.97;;;-2.59;77.21
72525;BME280;60547;48.502;8.996;2023-03-01T01:17:40;98593.50;;;-2.61;77.67
72525;BME280;60547;48.502;8.996;2023-03-01T01:20:06;98593.56;;;-2.70;77.23
72525;BME280;60547;48.502;8.996;2023-03-01T01:22:31;98587.31;;;-2.70;77.11
72525;BME280;60547;48.502;8.996;2023-03-01T01:24:57;98593.22;;;-2.68;77.33
72525;BME280;60547;48.502;8.996;2023-03-01T01:27:22;98583.19;;;-2.76;77.83
72525;BME280;60547;48.502;8.996;2023-03-01T01:29:48;98578.63;;;-2.84;77.73
72525;BME280;60547;48.502;8.996;2023-03-01T01:32:13;98585.66;;;-2.83;78.25
72525;BME280;60547;48.502;8.996;2023-03-01T01:34:40;98578.69;;;-2.93;77.67
72525;BME280;60547;48.502;8.996;2023-03-01T01:37:06;98588.13;;;-2.90;77.64
72525;BME280;60547;48.502;8.996;2023-03-01T01:39:34;98591.63;;;-2.90;77.51
72525;BME280;60547;48.502;8.996;2023-03-01T01:42:00;98579.00;;;-2.95;76.99
72525;BME280;60547;48.502;8.996;2023-03-01T01:44:27;98582.34;;;-2.89;77.21
72525;BME280;60547;48.502;8.996;2023-03-01T01:47:10;98577.09;;;-2.94;77.49
72525;BME280;60547;48.502;8.996;2023-03-01T01:49:42;98587.31;;;-2.91;77.57
72525;BME280;60547;48.502;8.996;2023-03-01T01:52:14;98585.13;;;-2.98;77.24
72525;BME280;60547;48.502;8.996;2023-03-01T01:54:53;98584.00;;;-2.97;77.36
72525;BME280;60547;48.502;8.996;2023-03-01T01:57:23;98586.19;;;-2.90;77.63
72525;BME280;60547;48.502;8.996;2023-03-01T01:59:53;98582.94;;;-2.83;77.51
72525;BME280;60547;48.502;8.996;2023-03-01T02:02:19;98581.81;;;-2.82;77.45
72525;BME280;60547;48.502;8.996;2023-03-01T02:04:47;98581.00;;;-2.83;77.86
72525;BME280;60547;48.502;8.996;2023-03-01T02:07:17;98570.66;;;-2.69;78.11
72525;BME280;60547;48.502;8.996;2023-03-01T02:09:51;98578.16;;;-2.66;77.33
72525;BME280;60547;48.502;8.996;2023-03-01T02:12:20;98562.47;;;-2.69;77.72
72525;BME280;60547;48.502;8.996;2023-03-01T02:14:47;98567.06;;;-2.61;78.30
72525;BME280;60547;48.502;8.996;2023-03-01T02:17:14;98546.72;;;-2.63;78.34
72525;BME280;60547;48.502;8.996;2023-03-01T02:22:37;98548.03;;;-2.48;78.33
72525;BME280;60547;48.502;8.996;2023-03-01T02:27:38;98547.59;;;-2.50;78.51
72525;BME280;60547;48.502;8.996;2023-03-01T02:30:05;98545.13;;;-2.43;78.03
72525;BME280;60547;48.502;8.996;2023-03-01T02:32:32;98547.97;;;-2.40;78.28
72525;BME280;60547;48.502;8.996;2023-03-01T02:34:57;98532.31;;;-2.31;78.27
72525;BME280;60547;48.502;8.996;2023-03-01T02:37:24;98536.56;;;-2.21;77.75
72525;BME280;60547;48.502;8.996;2023-03-01T02:39:59;98546.88;;;-2.26;77.50
72525;BME280;60547;48.502;8.996;2023-03-01T02:42:35;98533.13;;;-2.30;78.12
72525;BME280;60547;48.502;8.996;2023-03-01T02:45:01;98528.72;;;-2.22;77.62
72525;BME280;60547;48.502;8.996;2023-03-01T02:47:27;98526.81;;;-2.10;77.08
72525;BME280;60547;48.502;8.996;2023-03-01T02:49:52;98539.44;;;-2.05;77.42
72525;BME280;60547;48.502;8.996;2023-03-01T02:55:37;98519.91;;;-2.07;76.91
72525;BME280;60547;48.502;8.996;2023-03-01T02:58:04;98532.28;;;-1.98;76.71
72525;BME280;60547;48.502;8.996;2023-03-01T03:00:34;98521.03;;;-1.96;76.39
72525;BME280;60547;48.502;8.996;2023-03-01T03:03:00;98513.53;;;-1.99;77.50
72525;BME280;60547;48.502;8.996;2023-03-01T03:05:28;98509.91;;;-2.03;77.55
72525;BME280;60547;48.502;8.996;2023-03-01T03:07:55;98509.91;;;-2.03;76.82
72525;BME280;60547;48.502;8.996;2023-03-01T03:10:23;98509.00;;;-2.07;76.90
72525;BME280;60547;48.502;8.996;2023-03-01T03:12:51;98495.94;;;-2.02;76.61
72525;BME280;60547;48.502;8.996;2023-03-01T03:15:16;98505.47;;;-1.96;76.20
72525;BME280;60547;48.502;8.996;2023-03-01T03:17:43;98498.78;;;-1.86;76.10
72525;BME280;60547;48.502;8.996;2023-03-01T03:20:10;98502.06;;;-1.92;76.47
72525;BME280;60547;48.502;8.996;2023-03-01T03:22:39;98499.25;;;-1.84;76.81
72525;BME280;60547;48.502;8.996;2023-03-01T03:25:06;98497.88;;;-1.90;76.42
72525;BME280;60547;48.502;8.996;2023-03-01T03:27:36;98502.66;;;-1.87;76.00
72525;BME280;60547;48.502;8.996;2023-03-01T03:30:04;98493.22;;;-1.89;76.72
72525;BME280;60547;48.502;8.996;2023-03-01T03:32:37;98497.66;;;-1.85;76.48
72525;BME280;60547;48.502;8.996;2023-03-01T03:35:04;98505.38;;;-1.75;76.75
72525;BME280;60547;48.502;8.996;2023-03-01T03:37:40;98494.47;;;-1.75;76.89
72525;BME280;60547;48.502;8.996;2023-03-01T03:40:25;98479.47;;;-1.81;76.86
72525;BME280;60547;48.502;8.996;2023-03-01T03:42:50;98482.19;;;-1.81;76.92
72525;BME280;60547;48.502;8.996;2023-03-01T03:45:17;98483.78;;;-1.80;76.83
72525;BME280;60547;48.502;8.996;2023-03-01T03:47:43;98483.13;;;-1.65;76.81
72525;BME280;60547;48.502;8.996;2023-03-01T03:50:10;98485.97;;;-1.73;76.81
72525;BME280;60547;48.502;8.996;2023-03-01T03:52:36;98480.63;;;-1.70;77.18
72525;BME280;60547;48.502;8.996;2023-03-01T03:55:01;98477.31;;;-1.75;77.10
72525;BME280;60547;48.502;8.996;2023-03-01T03:57:27;98480.50;;;-1.73;76.79
72525;BME280;60547;48.502;8.996;2023-03-01T03:59:52;98490.38;;;-1.69;77.12
72525;BME280;60547;48.502;8.996;2023-03-01T04:02:18;98489.25;;;-1.68;76.99
72525;BME280;60547;48.502;8.996;2023-03-01T04:04:50;98489.25;;;-1.68;77.43
72525;BME280;60547;48.502;8.996;2023-03-01T04:07:16;98472.44;;;-1.70;77.84
72525;BME280;60547;48.502;8.996;2023-03-01T04:09:43;98481.53;;;-1.66;77.52
72525;BME280;60547;48.502;8.996;2023-03-01T04:12:09;98474.94;;;-1.65;77.31
72525;BME280;60547;48.502;8.996;2023-03-01T04:14:35;98469.25;;;-1.59;77.63
72525;BME280;60547;48.502;8.996;2023-03-01T04:17:00;98461.97;;;-1.68;76.95
72525;BME280;60547;48.502;8.996;2023-03-01T04:19:26;98467.44;;;-1.68;77.48
72525;BME280;60547;48.502;8.996;2023-03-01T04:21:52;98460.50;;;-1.65;77.78
72525;BME280;60547;48.502;8.996;2023-03-01T04:24:18;98461.41;;;-1.73;77.85
72525;BME280;60547;48.502;8.996;2023-03-01T04:26:44;98465.59;;;-1.64;77.67
72525;BME280;60547;48.502;8.996;2023-03-01T04:29:09;98471.41;;;-1.65;77.71
72525;BME280;60547;48.502;8.996;2023-03-01T04:31:35;98460.25;;;-1.60;76.36
72525;BME280;60547;48.502;8.996;2023-03-01T04:34:01;98468.56;;;-1.56;77.18
72525;BME280;60547;48.502;8.996;2023-03-01T04:36:28;98459.22;;;-1.55;77.27
72525;BME280;60547;48.502;8.996;2023-03-01T04:38:55;98458.09;;;-1.67;77.66
72525;BME280;60547;48.502;8.996;2023-03-01T04:41:23;98466.28;;;-1.54;77.60
72525;BME280;60547;48.502;8.996;2023-03-01T04:43:50;98455.59;;;-1.59;77.67
72525;BME280;60547;48.502;8.996;2023-03-01T04:46:18;98450.50;;;-1.61;77.38
72525;BME280;60547;48.502;8.996;2023-03-01T04:48:44;98457.41;;;-1.51;76.99
72525;BME280;60547;48.502;8.996;2023-03-01T04:51:10;98458.31;;;-1.47;76.93
72525;BME280;60547;48.502;8.996;2023-03-01T04:53:39;98460.13;;;-1.39;76.32
72525;BME280;60547;48.502;8.996;2023-03-01T04:56:05;98455.69;;;-1.44;76.08
72525;BME280;60547;48.502;8.996;2023-03-01T04:58:33;98452.63;;;-1.42;76.11
72525;BME280;60547;48.502;8.996;2023-03-01T05:00:58;98454.91;;;-1.44;76.83
72525;BME280;60547;48.502;8.996;2023-03-01T05:03:24;98453.88;;;-1.40;77.51
72525;BME280;60547;48.502;8.996;2023-03-01T05:05:51;98453.06;;;-1.40;77.97
72525;BME280;60547;48.502;8.996;2023-03-01T05:08:17;98449.44;;;-1.44;77.50
72525;BME280;60547;48.502;8.996;2023-03-01T05:10:50;98455.81;;;-1.40;77.40
72525;BME280;60547;48.502;8.996;2023-03-01T05:13:16;98448.41;;;-1.40;77.52
72525;BME280;60547;48.502;8.996;2023-03-01T05:15:58;98440.13;;;-1.43;77.62
72525;BME280;60547;48.502;8.996;2023-03-01T05:18:25;98445.78;;;-1.36;77.74
72525;BME280;60547;48.502;8.996;2023-03-01T05:20:54;98437.84;;;-1.41;77.70
72525;BME280;60547;48.502;8.996;2023-03-01T05:23:22;98448.97;;;-1.34;77.66
72525;BME280;60547;48.502;8.996;2023-03-01T05:25:48;98448.16;;;-1.35;77.32
72525;BME280;60547;48.502;8.996;2023-03-01T05:28:14;98442.38;;;-1.33;77.16
72525;BME280;60547;48.502;8.996;2023-03-01T05:30:41;98445.56;;;-1.31;77.55
72525;BME280;60547;48.502;8.996;2023-03-01T05:33:07;98444.16;;;-1.25;76.83
72525;BME280;60547;48.502;8.996;2023-03-01T05:35:43;98445.31;;;-1.26;76.55
72525;BME280;60547;48.502;8.996;2023-03-01T05:38:09;98441.44;;;-1.25;77.08
72525;BME280;60547;48.502;8.996;2023-03-01T05:40:39;98443.13;;;-1.20;76.40
72525;BME280;60547;48.502;8.996;2023-03-01T05:43:05;98444.84;;;-1.16;76.11
72525;BME280;60547;48.502;8.996;2023-03-01T05:45:32;98437.78;;;-1.17;75.85
72525;BME280;60547;48.502;8.996;2023-03-01T05:47:58;98421.91;;;-1.39;76.36
72525;BME280;60547;48.502;8.996;2023-03-01T05:50:26;98439.03;;;-1.14;75.82
72525;BME280;60547;48.502;8.996;2023-03-01T05:53:06;98435.84;;;-1.16;75.93
72525;BME280;60547;48.502;8.996;2023-03-01T05:55:33;98445.28;;;-1.14;76.71
72525;BME280;60547;48.502;8.996;2023-03-01T05:58:05;98439.25;;;-1.19;76.23
72525;BME280;60547;48.502;8.996;2023-03-01T06:00:31;98418.63;;;-1.05;75.83
72525;BME280;60547;48.502;8.996;2023-03-01T06:02:58;98411.03;;;-1.11;76.39
72525;BME280;60547;48.502;8.996;2023-03-01T06:05:24;98430.69;;;-1.06;76.41
72525;BME280;60547;48.502;8.996;2023-03-01T06:07:50;98435.00;;;-1.05;76.58
72525;BME280;60547;48.502;8.996;2023-03-01T06:10:17;98436.94;;;-1.05;76.94
72525;BME280;60547;48.502;8.996;2023-03-01T06:12:43;98436.28;;;-1.14;77.05
72525;BME280;60547;48.502;8.996;2023-03-01T06:15:11;98438.09;;;-1.06;76.93
72525;BME280;60547;48.502;8.996;2023-03-01T06:17:39;98425.47;;;-1.11;76.72
72525;BME280;60547;48.502;8.996;2023-03-01T06:20:14;98432.53;;;-1.10;77.68
72525;BME280;60547;48.502;8.996;2023-03-01T06:22:41;98406.59;;;-1.16;76.89
72525;BME280;60547;48.502;8.996;2023-03-01T06:25:08;98412.97;;;-1.12;76.65
72525;BME280;60547;48.502;8.996;2023-03-01T06:27:34;98419.03;;;-0.90;76.35
72525;BME280;60547;48.502;8.996;2023-03-01T06:29:59;98431.09;;;-0.91;76.62
72525;BME280;60547;48.502;8.996;2023-03-01T06:32:25;98426.78;;;-0.92;77.48
72525;BME280;60547;48.502;8.996;2023-03-01T06:34:51;98430.91;;;-0.99;76.74
72525;BME280;60547;48.502;8.996;2023-03-01T06:37:16;98438.03;;;-0.94;77.11
72525;BME280;60547;48.502;8.996;2023-03-01T06:39:42;98431.72;;;-0.82;76.75
72525;BME280;60547;48.502;8.996;2023-03-01T06:42:08;98434.56;;;-0.79;77.29
72525;BME280;60547;48.502;8.996;2023-03-01T06:44:36;98434.47;;;-0.82;77.31
72525;BME280;60547;48.502;8.996;2023-03-01T06:47:02;98403.34;;;-0.93;77.36
72525;BME280;60547;48.502;8.996;2023-03-01T06:49:28;98430.34;;;-0.76;77.19
72525;BME280;60547;48.502;8.996;2023-03-01T06:51:54;98426.22;;;-0.70;76.39
72525;BME280;60547;48.502;8.996;2023-03-01T06:54:19;98430.44;;;-0.73;76.58
72525;BME280;60547;48.502;8.996;2023-03-01T06:56:48;98421.69;;;-0.78;77.12
72525;BME280;60547;48.502;8.996;2023-03-01T06:59:13;98422.59;;;-0.74;76.51
72525;BME280;60547;48.502;8.996;2023-03-01T07:01:39;98423.75;;;-0.75;76.73
72525;BME280;60547;48.502;8.996;2023-03-01T07:04:05;98419.41;;;-0.76;77.07
72525;BME280;60547;48.502;8.996;2023-03-01T07:06:30;98408.94;;;-0.74;76.53
72525;BME280;60547;48.502;8.996;2023-03-01T07:08:56;98401.19;;;-0.72;76.90
72525;BME280;60547;48.502;8.996;2023-03-01T07:11:21;98414.34;;;-0.62;76.33
72525;BME280;60547;48.502;8.996;2023-03-01T07:13:47;98405.00;;;-0.61;76.13
72525;BME280;60547;48.502;8.996;2023-03-01T07:16:13;98407.66;;;-0.49;75.47
72525;BME280;60547;48.502;8.996;2023-03-01T07:18:39;98401.94;;;-0.44;75.47
72525;BME280;60547;48.502;8.996;2023-03-01T07:21:07;98403.25;;;-0.38;75.52
72525;BME280;60547;48.502;8.996;2023-03-01T07:23:32;98400.53;;;-0.38;75.93
72525;BME280;60547;48.502;8.996;2023-03-01T07:25:58;98405.91;;;-0.25;75.37
72525;BME280;60547;48.502;8.996;2023-03-01T07:28:24;98384.13;;;-0.38;74.73
72525;BME280;60547;48.502;8.996;2023-03-01T07:30:50;98389.31;;;-0.32;74.59
72525;BME280;60547;48.502;8.996;2023-03-01T07:33:16;98392.66;;;-0.23;75.34
72525;BME280;60547;48.502;8.996;2023-03-01T07:35:42;98399.91;;;-0.15;74.64
72525;BME280;60547;48.502;8.996;2023-03-01T07:38:07;98374.41;;;-0.19;74.70
72525;BME280;60547;48.502;8.996;2023-03-01T07:40:33;98384.56;;;-0.04;74.37
72525;BME280;60547;48.502;8.996;2023-03-01T07:42:59;98381.38;;;-0.06;74.55
72525;BME280;60547;48.502;8.996;2023-03-01T07:45:25;98377.66;;;0.02;74.27
72525;BME280;60547;48.502;8.996;2023-03-01T07:47:52;98395.72;;;0.22;73.32
72525;BME280;60547;48.502;8.996;2023-03-01T07:50:19;98384.16;;;0.13;73.95
72525;BME280;60547;48.502;8.996;2023-03-01T07:52:46;98374.81;;;0.14;73.35
72525;BME280;60547;48.502;8.996;2023-03-01T07:55:12;98370.81;;;0.27;73.08
72525;BME280;60547;48.502;8.996;2023-03-01T07:57:38;98365.47;;;0.15;71.95
72525;BME280;60547;48.502;8.996;2023-03-01T08:00:04;98374.91;;;0.18;71.91
72525;BME280;60547;48.502;8.996;2023-03-01T08:02:30;98378.59;;;0.25;71.44
72525;BME280;60547;48.502;8.996;2023-03-01T08:04:56;98374.78;;;0.30;70.72
72525;BME280;60547;48.502;8.996;2023-03-01T08:07:21;98357.94;;;0.28;71.43
72525;BME280;60547;48.502;8.996;2023-03-01T08:09:47;98368.25;;;0.35;70.85
72525;BME280;60547;48.502;8.996;2023-03-01T08:12:12;98366.25;;;0.51;70.41
72525;BME280;60547;48.502;8.996;2023-03-01T08:14:38;98370.06;;;0.66;70.33
72525;BME280;60547;48.502;8.996;2023-03-01T08:17:03;98352.41;;;0.82;70.34
72525;BME280;60547;48.502;8.996;2023-03-01T08:19:29;98369.44;;;0.91;69.10
72525;BME280;60547;48.502;8.996;2023-03-01T08:21:55;98366.41;;;0.96;68.61
72525;BME280;60547;48.502;8.996;2023-03-01T08:24:23;98356.06;;;1.09;67.83
72525;BME280;60547;48.502;8.996;2023-03-01T08:26:49;98362.38;;;1.33;67.29
72525;BME280;60547;48.502;8.996;2023-03-01T08:29:14;98356.00;;;1.06;67.21
72525;BME280;60547;48.502;8.996;2023-03-01T08:31:40;98362.66;;;1.05;67.19
72525;BME280;60547;48.502;8.996;2023-03-01T08:34:11;98357.53;;;1.03;67.37
72525;BME280;60547;48.502;8.996;2023-03-01T08:36:39;98358.16;;;1.16;66.89
72525;BME280;60547;48.502;8.996;2023-03-01T08:39:05;98362.81;;;1.35;66.76
72525;BME280;60547;48.502;8.996;2023-03-01T08:41:32;98357.94;;;1.47;66.33
72525;BME280;60547;48.502;8.996;2023-03-01T08:43:57;98354.75;;;1.22;65.90
72525;BME280;60547;48.502;8.996;2023-03-01T08:46:31;98354.53;;;1.31;67.05
72525;BME280;60547;48.502;8.996;2023-03-01T08:48:57;98354.41;;;1.70;67.77
72525;BME280;60547;48.502;8.996;2023-03-01T08:51:24;98349.03;;;1.77;66.84
72525;BME280;60547;48.502;8.996;2023-03-01T08:53:49;98349.59;;;1.86;65.51
72525;BME280;60547;48.502;8.996;2023-03-01T08:56:16;98348.16;;;1.96;65.36
72525;BME280;60547;48.502;8.996;2023-03-01T08:58:48;98341.25;;;2.05;64.39
72525;BME280;60547;48.502;8.996;2023-03-01T09:01:17;98340.16;;;2.10;64.08
72525;BME280;60547;48.502;8.996;2023-03-01T09:03:43;98331.94;;;2.40;64.30
72525;BME280;60547;48.502;8.996;2023-03-01T09:06:09;98336.28;;;2.71;62.56
72525;BME280;60547;48.502;8.996;2023-03-01T09:08:40;98318.91;;;2.63;61.79
72525;BME280;60547;48.502;8.996;2023-03-01T09:11:07;98309.22;;;2.73;62.68
72525;BME280;60547;48.502;8.996;2023-03-01T09:13:33;98313.75;;;2.91;61.81
72525;BME280;60547;48.502;8.996;2023-03-01T09:16:01;98318.84;;;2.89;61.60
72525;BME280;60547;48.502;8.996;2023-03-01T09:18:28;98301.34;;;3.05;60.92
72525;BME280;60547;48.502;8.996;2023-03-01T09:21:00;98311.53;;;3.04;60.74
72525;BME280;60547;48.502;8.996;2023-03-01T09:23:26;98309.69;;;2.78;59.87
72525;BME280;60547;48.502;8.996;2023-03-01T09:25:52;98307.00;;;2.85;59.71
72525;BME280;60547;48.502;8.996;2023-03-01T09:28:17;98275.38;;;2.65;60.00
72525;BME280;60547;48.502;8.996;2023-03-01T09:30:43;98290.44;;;2.78;60.37
72525;BME280;60547;48.502;8.996;2023-03-01T09:33:08;98296.56;;;2.65;59.54
72525;BME280;60547;48.502;8.996;2023-03-01T09:35:39;98304.41;;;3.00;59.18
72525;BME280;60547;48.502;8.996;2023-03-01T09:38:13;98306.56;;;2.80;60.30
72525;BME280;60547;48.502;8.996;2023-03-01T09:40:43;98304.75;;;3.32;58.64
72525;BME280;60547;48.502;8.996;2023-03-01T09:45:50;98290.47;;;3.19;57.88
72525;BME280;60547;48.502;8.996;2023-03-01T09:48:20;98298.59;;;3.45;58.38
72525;BME280;60547;48.502;8.996;2023-03-01T09:50:48;98294.19;;;3.37;57.84
72525;BME280;60547;48.502;8.996;2023-03-01T09:53:23;98301.84;;;3.58;57.73
72525;BME280;60547;48.502;8.996;2023-03-01T09:56:02;98287.63;;;3.52;57.28
72525;BME280;60547;48.502;8.996;2023-03-01T10:01:38;98290.56;;;3.26;58.02
72525;BME280;60547;48.502;8.996;2023-03-01T10:10:31;98291.72;;;3.73;57.09
72525;BME280;60547;48.502;8.996;2023-03-01T10:13:10;98279.22;;;3.82;57.01
72525;BME280;60547;48.502;8.996;2023-03-01T10:15:44;98275.59;;;4.30;56.98
72525;BME280;60547;48.502;8.996;2023-03-01T10:18:17;98277.63;;;3.78;57.24
72525;BME280;60547;48.502;8.996;2023-03-01T10:20:57;98262.59;;;3.68;57.35
72525;BME280;60547;48.502;8.996;2023-03-01T10:23:25;98259.63;;;3.91;56.66
72525;BME280;60547;48.502;8.996;2023-03-01T10:31:50;98257.63;;;4.64;55.06
72525;BME280;60547;48.502;8.996;2023-03-01T10:36:56;98260.22;;;4.29;55.77
72525;BME280;60547;48.502;8.996;2023-03-01T10:39:24;98270.19;;;4.51;55.13
72525;BME280;60547;48.502;8.996;2023-03-01T10:41:59;98252.88;;;4.54;55.41
72525;BME280;60547;48.502;8.996;2023-03-01T10:44:46;98255.22;;;4.48;55.49
72525;BME280;60547;48.502;8.996;2023-03-01T10:47:16;98249.47;;;5.03;54.59
72525;BME280;60547;48.502;8.996;2023-03-01T10:50:03;98247.13;;;5.30;54.82
72525;BME280;60547;48.502;8.996;2023-03-01T10:52:36;98244.00;;;5.57;53.53
72525;BME280;60547;48.502;8.996;2023-03-01T10:58:16;98217.56;;;5.70;52.41
72525;BME280;60547;48.502;8.996;2023-03-01T11:03:15;98221.50;;;5.76;52.22
72525;BME280;60547;48.502;8.996;2023-03-01T11:06:00;98221.47;;;6.11;50.93
72525;BME280;60547;48.502;8.996;2023-03-01T11:08:35;98215.22;;;5.54;51.48
72525;BME280;60547;48.502;8.996;2023-03-01T11:11:06;98207.28;;;5.88;51.30
72525;BME280;60547;48.502;8.996;2023-03-01T11:13:33;98201.69;;;6.20;51.02
72525;BME280;60547;48.502;8.996;2023-03-01T11:16:03;98193.41;;;6.20;50.76
72525;BME280;60547;48.502;8.996;2023-03-01T11:18:31;98182.59;;;6.58;51.20
72525;BME280;60547;48.502;8.996;2023-03-01T11:20:58;98183.78;;;6.53;49.64
72525;BME280;60547;48.502;8.996;2023-03-01T11:23:25;98183.34;;;6.65;49.26
72525;BME280;60547;48.502;8.996;2023-03-01T11:26:00;98179.00;;;6.64;49.19
72525;BME280;60547;48.502;8.996;2023-03-01T11:28:28;98178.09;;;6.82;48.74
72525;BME280;60547;48.502;8.996;2023-03-01T11:31:04;98164.19;;;6.96;48.47
72525;BME280;60547;48.502;8.996;2023-03-01T11:33:39;98162.13;;;7.52;47.75
72525;BME280;60547;48.502;8.996;2023-03-01T11:38:35;98157.22;;;6.70;48.61
72525;BME280;60547;48.502;8.996;2023-03-01T11:41:06;98159.81;;;7.47;47.78
72525;BME280;60547;48.502;8.996;2023-03-01T11:43:56;98150.56;;;7.19;47.10
72525;BME280;60547;48.502;8.996;2023-03-01T12:03:33;98120.66;;;7.86;45.75
72525;BME280;60547;48.502;8.996;2023-03-01T12:06:17;98116.19;;;7.58;46.13
72525;BME280;60547;48.502;8.996;2023-03-01T12:08:59;98107.28;;;7.77;45.79
72525;BME280;60547;48.502;8.996;2023-03-01T12:33:32;98068.44;;;7.47;45.45
72525;BME280;60547;48.502;8.996;2023-03-01T12:38:48;98057.97;;;8.56;44.61
72525;BME280;60547;48.502;8.996;2023-03-01T12:44:36;98039.78;;;8.25;45.22
72525;BME280;60547;48.502;8.996;2023-03-01T12:49:55;98023.13;;;8.55;44.88
72525;BME280;60547;48.502;8.996;2023-03-01T12:52:44;98033.81;;;8.80;43.24
72525;BME280;60547;48.502;8.996;2023-03-01T12:55:37;98024.22;;;8.61;44.26
72525;BME280;60547;48.502;8.996;2023-03-01T13:09:42;98012.66;;;8.90;45.03
72525;BME280;60547;48.502;8.996;2023-03-01T13:26:13;97995.28;;;8.62;45.41
72525;BME280;60547;48.502;8.996;2023-03-01T13:34:01;98000.44;;;8.37;45.00
72525;BME280;60547;48.502;8.996;2023-03-01T13:39:27;97993.94;;;8.47;44.40
72525;BME280;60547;48.502;8.996;2023-03-01T13:41:55;97984.22;;;8.32;44.91
72525;BME280;60547;48.502;8.996;2023-03-01T13:46:47;97984.66;;;8.57;44.96
72525;BME280;60547;48.502;8.996;2023-03-01T13:49:16;97987.53;;;8.50;44.83
72525;BME280;60547;48.502;8.996;2023-03-01T13:51:46;97987.06;;;8.79;44.76
72525;BME280;60547;48.502;8.996;2023-03-01T13:54:14;97992.50;;;8.86;44.05
72525;BME280;60547;48.502;8.996;2023-03-01T13:56:41;97989.97;;;8.95;43.23
72525;BME280;60547;48.502;8.996;2023-03-01T13:59:14;97986.88;;;9.32;42.77
72525;BME280;60547;48.502;8.996;2023-03-01T14:01:41;97986.69;;;8.53;44.10
72525;BME280;60547;48.502;8.996;2023-03-01T14:04:23;97975.25;;;8.74;43.97
72525;BME280;60547;48.502;8.996;2023-03-01T14:06:51;97971.22;;;8.29;43.93
72525;BME280;60547;48.502;8.996;2023-03-01T14:09:25;97977.91;;;8.58;43.83
72525;BME280;60547;48.502;8.996;2023-03-01T14:14:59;97975.09;;;9.05;43.56
72525;BME280;60547;48.502;8.996;2023-03-01T14:20:19;97991.53;;;8.72;44.33
72525;BME280;60547;48.502;8.996;2023-03-01T14:22:46;97987.28;;;8.41;44.96
72525;BME280;60547;48.502;8.996;2023-03-01T14:25:28;97992.38;;;8.69;44.84
72525;BME280;60547;48.502;8.996;2023-03-01T14:28:02;97992.00;;;8.67;43.92
72525;BME280;60547;48.502;8.996;2023-03-01T14:33:03;97994.19;;;8.80;44.16
72525;BME280;60547;48.502;8.996;2023-03-01T14:35:34;97985.81;;;8.83;43.95
72525;BME280;60547;48.502;8.996;2023-03-01T14:38:00;97995.28;;;8.86;45.62
72525;BME280;60547;48.502;8.996;2023-03-01T14:42:53;98004.56;;;8.76;44.24
72525;BME280;60547;48.502;8.996;2023-03-01T14:45:19;98004.69;;;8.68;44.09
72525;BME280;60547;48.502;8.996;2023-03-01T14:47:46;97989.78;;;9.05;44.52
72525;BME280;60547;48.502;8.996;2023-03-01T14:50:26;97992.63;;;8.79;44.43
72525;BME280;60547;48.502;8.996;2023-03-01T14:52:56;97992.13;;;8.84;44.31
72525;BME280;60547;48.502;8.996;2023-03-01T14:55:35;98003.69;;;8.55;45.08
72525;BME280;60547;48.502;8.996;2023-03-01T14:58:05;98001.53;;;8.66;44.35
72525;BME280;60547;48.502;8.996;2023-03-01T15:00:32;97994.81;;;8.40;44.74
72525;BME280;60547;48.502;8.996;2023-03-01T15:03:06;97992.25;;;8.26;45.09
72525;BME280;60547;48.502;8.996;2023-03-01T15:05:35;97989.78;;;8.32;44.98
72525;BME280;60547;48.502;8.996;2023-03-01T15:08:02;97992.88;;;8.10;45.60
72525;BME280;60547;48.502;8.996;2023-03-01T15:10:31;97996.28;;;8.49;45.45
72525;BME280;60547;48.502;8.996;2023-03-01T15:13:10;97976.34;;;8.03;45.69
72525;BME280;60547;48.502;8.996;2023-03-01T15:15:46;97983.63;;;8.48;45.10
72525;BME280;60547;48.502;8.996;2023-03-01T15:18:19;97986.97;;;8.35;46.27
72525;BME280;60547;48.502;8.996;2023-03-01T15:20:47;97998.88;;;8.32;45.86
72525;BME280;60547;48.502;8.996;2023-03-01T15:23:21;98002.91;;;8.01;45.79
72525;BME280;60547;48.502;8.996;2023-03-01T15:25:47;98001.19;;;8.10;46.47